Time;durP1;ratioP1;P1;durP2;ratioP2;P2;SDS_P1;SDS_P2;PMS_P1;PMS_P2;Temp;Humidity;BMP_temperature;BMP_pressure;BME280_temperature;BME280_humidity;BME280_pressure;Samples;Min_cycle;Max_cycle;Signal;HPM_P1;HPM_P2
2021/06/14 06:31:53;;;;;;;5.05;2.30;;;;;;;21.00;44.94;99585.72;5146901;27;20140;-82
2021/06/14 06:34:19;;;;;;;4.68;2.30;;;;;;;21.30;44.29;99587.44;5122091;27;20597;-81
2021/06/14 06:36:46;;;;;;;5.28;2.42;;;;;;;21.43;44.07;99589.94;5111151;28;20104;-81
2021/06/14 06:39:13;;;;;;;6.68;2.05;;;;;;;21.11;43.41;99587.63;5113513;28;20044;-82
2021/06/14 06:41:40;;;;;;;5.13;2.17;;;;;;;21.59;42.89;99585.59;5110992;28;20054;-81
2021/06/14 06:44:07;;;;;;;7.28;2.20;;;;;;;22.15;43.46;99585.75;5111004;28;20048;-81
2021/06/14 06:46:33;;;;;;;3.80;2.38;;;;;;;22.09;42.06;99575.69;5110827;28;20131;-81
2021/06/14 06:49:02;;;;;;;7.32;2.38;;;;;;;22.65;40.89;99574.94;5122790;28;20078;-82
2021/06/14 06:51:28;;;;;;;2.97;1.90;;;;;;;22.86;42.59;99574.13;5131354;27;20072;-81
2021/06/14 06:56:36;;;;;;;4.47;2.28;;;;;;;22.83;40.02;99568.25;5110350;28;20097;-81
2021/06/14 06:59:02;;;;;;;5.95;2.38;;;;;;;22.71;40.17;99566.44;5111075;28;20048;-82
2021/06/14 07:01:29;;;;;;;4.78;2.53;;;;;;;22.41;42.57;99580.66;5090555;28;20098;-82
2021/06/14 07:03:56;;;;;;;7.25;2.13;;;;;;;22.65;41.56;99580.47;5102381;28;20097;-81
2021/06/14 07:06:24;;;;;;;4.25;2.25;;;;;;;22.98;40.81;99565.69;5114793;28;20039;-82
2021/06/14 07:08:51;;;;;;;5.35;1.80;;;;;;;22.77;40.74;99564.56;5130747;27;20096;-82
2021/06/14 07:11:17;;;;;;;6.38;2.30;;;;;;;23.14;40.17;99558.44;5131268;27;20039;-82
2021/06/14 07:13:44;;;;;;;4.22;2.00;;;;;;;23.09;40.59;99574.97;5113803;27;20075;-82
2021/06/14 07:16:11;;;;;;;2.50;2.00;;;;;;;23.30;41.05;99568.59;5109050;27;20044;-82
2021/06/14 07:18:37;;;;;;;6.40;2.20;;;;;;;23.27;39.25;99559.97;5119761;28;20104;-82
2021/06/14 07:21:05;;;;;;;6.07;1.85;;;;;;;23.46;39.43;99569.63;5121066;27;20161;-81
2021/06/14 07:23:33;;;;;;;7.13;2.38;;;;;;;23.36;38.47;99565.91;5110306;28;20487;-82
2021/06/14 07:26:00;;;;;;;8.18;1.70;;;;;;;23.61;38.03;99576.47;5114163;28;20047;-82
2021/06/14 07:28:26;;;;;;;4.03;2.03;;;;;;;23.95;37.82;99577.13;5130861;27;20051;-82
2021/06/14 07:30:53;;;;;;;3.05;1.83;;;;;;;24.09;38.93;99573.88;5123767;27;20043;-82
2021/06/14 07:33:20;;;;;;;8.23;2.10;;;;;;;24.54;37.79;99567.03;5116850;28;20384;-82
2021/06/14 07:35:47;;;;;;;6.35;2.15;;;;;;;24.58;35.77;99561.78;5130193;27;20638;-82
2021/06/14 07:38:15;;;;;;;4.15;1.63;;;;;;;24.37;36.83;99564.41;5124242;27;20055;-82
2021/06/14 07:40:43;;;;;;;5.07;2.42;;;;;;;24.30;36.56;99572.97;5130711;27;20427;-82
2021/06/14 07:43:12;;;;;;;5.45;2.15;;;;;;;24.51;37.88;99567.53;5110730;27;20052;-82
2021/06/14 07:45:39;;;;;;;6.55;1.73;;;;;;;24.72;37.84;99572.19;5095998;28;20672;-82
2021/06/14 07:48:06;;;;;;;4.75;2.20;;;;;;;24.95;36.07;99561.75;5100392;28;20044;-82
2021/06/14 07:50:33;;;;;;;4.18;1.90;;;;;;;24.63;36.73;99565.47;5098008;28;20094;-82
2021/06/14 07:53:00;;;;;;;7.22;1.95;;;;;;;24.65;35.80;99571.56;5098829;28;20036;-82
2021/06/14 07:55:27;;;;;;;4.18;1.67;;;;;;;25.00;37.28;99566.47;5084177;28;20637;-82
2021/06/14 07:57:56;;;;;;;4.13;1.77;;;;;;;24.53;35.28;99568.97;5079542;28;20381;-81
2021/06/14 08:00:23;;;;;;;6.85;1.95;;;;;;;24.66;36.55;99562.13;5097266;28;20090;-81
2021/06/14 08:02:50;;;;;;;7.45;1.92;;;;;;;24.62;37.84;99560.16;5077099;28;20484;-81
2021/06/14 08:05:17;;;;;;;7.35;2.20;;;;;;;24.28;36.89;99555.72;5108651;28;20051;-82
2021/06/14 08:07:44;;;;;;;6.97;2.70;;;;;;;24.35;35.61;99570.22;5111883;28;20433;-82
2021/06/14 08:10:14;;;;;;;8.57;1.80;;;;;;;24.41;35.23;99561.94;5110587;28;20044;-81
2021/06/14 08:12:44;;;;;;;7.70;2.50;;;;;;;24.59;36.45;99563.47;5096026;28;20056;-81
2021/06/14 08:15:14;;;;;;;7.07;2.35;;;;;;;24.76;35.50;99558.56;5097560;28;20043;-81
2021/06/14 08:17:41;;;;;;;6.70;2.33;;;;;;;24.97;37.00;99556.72;5078940;28;20500;-81
2021/06/14 08:20:15;;;;;;;7.63;1.77;;;;;;;24.84;36.40;99554.44;5083825;28;20075;-81
2021/06/14 08:25:26;;;;;;;7.45;2.10;;;;;;;25.24;34.04;99556.56;5101406;28;20414;-81
2021/06/14 08:27:53;;;;;;;4.47;1.80;;;;;;;24.94;35.92;99556.44;5102047;28;20525;-81
2021/06/14 08:30:24;;;;;;;5.28;2.03;;;;;;;24.81;35.34;99554.97;5083266;28;20040;-81
2021/06/14 08:32:52;;;;;;;3.50;1.70;;;;;;;24.60;36.37;99554.03;5099653;28;20052;-81
2021/06/14 08:35:21;;;;;;;4.53;1.60;;;;;;;24.78;35.97;99553.59;5098658;28;20047;-81
2021/06/14 08:37:50;;;;;;;6.25;1.70;;;;;;;25.05;36.15;99561.78;5107460;28;20591;-81
2021/06/14 08:40:20;;;;;;;4.55;1.75;;;;;;;25.04;36.37;99554.53;5098446;28;20047;-81
2021/06/14 08:42:47;;;;;;;8.45;2.33;;;;;;;24.73;34.42;99551.63;5109027;28;20541;-82
2021/06/14 08:45:15;;;;;;;6.22;2.03;;;;;;;24.85;35.14;99542.22;5093506;28;20135;-82
2021/06/14 08:47:45;;;;;;;4.57;2.20;;;;;;;24.90;36.91;99550.56;5094916;28;20480;-82
2021/06/14 08:50:13;;;;;;;;;;;;;;;25.10;36.00;99552.63;5089175;28;20053;-82
2021/06/14 08:52:40;;;;;;;5.05;1.80;;;;;;;25.22;35.08;99542.09;5074502;28;19981;-81
2021/06/14 08:55:10;;;;;;;5.60;2.58;;;;;;;25.21;35.84;99548.75;5096659;28;20044;-82
2021/06/14 08:57:37;;;;;;;3.78;1.80;;;;;;;25.22;35.54;99541.28;5095192;28;20480;-81
2021/06/14 09:00:06;;;;;;;3.95;1.90;;;;;;;25.24;35.93;99534.31;5112543;28;20056;-82
2021/06/14 09:02:32;;;;;;;4.40;2.20;;;;;;;25.22;34.62;99535.72;5104936;28;20047;-81
2021/06/14 09:05:00;;;;;;;2.97;1.80;;;;;;;25.57;35.70;99536.94;5098230;28;20047;-81
2021/06/14 09:07:29;;;;;;;4.03;1.90;;;;;;;25.79;34.23;99520.81;5102961;28;20453;-81
2021/06/14 09:09:56;;;;;;;12.30;1.92;;;;;;;26.11;36.43;99519.75;5098016;28;20043;-81
2021/06/14 09:12:23;;;;;;;3.97;1.83;;;;;;;26.03;35.18;99506.41;5114713;28;20052;-81
2021/06/14 09:15:07;;;;;;;2.92;1.98;;;;;;;25.86;33.62;99523.31;5095076;28;20059;-82
2021/06/14 09:17:34;;;;;;;4.63;2.05;;;;;;;25.61;33.90;99521.38;5113531;28;20039;-81
2021/06/14 09:20:04;;;;;;;5.63;1.77;;;;;;;26.02;32.56;99515.84;5101009;28;20044;-81
2021/06/14 09:22:31;;;;;;;8.32;2.08;;;;;;;25.71;33.05;99518.56;5100242;28;20044;-83
2021/06/14 09:25:00;;;;;;;5.40;1.73;;;;;;;25.88;33.66;99492.41;5094360;28;20052;-82
2021/06/14 09:27:31;;;;;;;7.93;2.03;;;;;;;25.83;32.91;99498.00;5100903;28;20128;-82
2021/06/14 09:30:10;;;;;;;2.83;1.77;;;;;;;25.68;33.86;99508.00;5094428;28;20495;-82
2021/06/14 09:32:37;;;;;;;3.28;1.70;;;;;;;25.82;34.17;99513.88;5100610;28;20610;-82
2021/06/14 09:35:09;;;;;;;3.28;1.80;;;;;;;26.18;35.44;99501.91;5090571;28;20051;-81
2021/06/14 09:37:35;;;;;;;3.17;2.28;;;;;;;26.06;33.72;99494.69;5089171;28;20105;-81
2021/06/14 09:40:02;;;;;;;5.80;2.17;;;;;;;25.89;37.24;99505.22;5114536;28;20043;-81
2021/06/14 09:42:31;;;;;;;6.47;2.28;;;;;;;25.58;32.94;99505.22;5109883;28;20055;-81
2021/06/14 09:45:05;;;;;;;8.10;2.42;;;;;;;25.34;33.23;99513.25;5095901;28;20047;-81
2021/06/14 09:47:35;;;;;;;4.72;1.70;;;;;;;25.60;33.38;99489.91;5104284;28;20167;-81
2021/06/14 09:50:04;;;;;;;;;;;;;;;25.91;33.05;99489.06;5096720;28;20052;-82
2021/06/14 09:52:32;;;;;;;3.50;1.90;;;;;;;26.39;33.69;99486.84;5099441;28;19974;-82
2021/06/14 09:57:48;;;;;;;3.60;1.97;;;;;;;26.52;31.57;99462.28;5093730;28;20537;-81
2021/06/14 10:00:17;;;;;;;3.53;1.63;;;;;;;26.48;34.10;99474.00;5073395;28;20404;-82
2021/06/14 10:02:45;;;;;;;4.88;1.70;;;;;;;26.41;31.07;99470.66;5084770;28;20044;-82
2021/06/14 10:05:16;;;;;;;5.35;1.88;;;;;;;26.74;33.47;99470.31;5107154;28;20047;-82
2021/06/14 10:07:49;;;;;;;5.60;1.90;;;;;;;27.00;31.99;99471.03;5093853;28;20071;-82
2021/06/14 10:10:25;;;;;;;3.83;1.98;;;;;;;26.87;34.07;99446.56;5101254;28;20069;-82
2021/06/14 10:12:56;;;;;;;3.08;1.60;;;;;;;26.96;31.68;99458.78;5113070;28;20036;-82
2021/06/14 10:15:31;;;;;;;9.07;2.28;;;;;;;26.70;32.26;99455.28;5109638;28;20044;-82
2021/06/14 10:17:58;;;;;;;5.68;1.67;;;;;;;26.76;32.32;99441.03;5093891;28;20051;-82
2021/06/14 10:20:27;;;;;;;6.32;2.65;;;;;;;27.10;32.62;99440.31;5089601;28;20048;-82
2021/06/14 10:22:59;;;;;;;5.47;2.58;;;;;;;27.24;33.56;99453.63;5113492;28;20050;-81
2021/06/14 10:25:27;;;;;;;6.65;1.83;;;;;;;27.17;31.84;99435.25;5110842;28;20112;-82
2021/06/14 10:27:54;;;;;;;3.03;1.50;;;;;;;26.96;30.66;99440.09;5109211;28;20073;-82
2021/06/14 10:30:23;;;;;;;3.63;1.70;;;;;;;27.11;30.26;99433.56;5093720;28;20090;-82
2021/06/14 10:32:50;;;;;;;5.13;2.08;;;;;;;27.34;33.72;99434.88;5097715;28;20051;-81
2021/06/14 10:35:20;;;;;;;2.88;1.85;;;;;;;27.41;31.02;99423.38;5092223;28;20059;-81
2021/06/14 10:37:49;;;;;;;7.03;1.90;;;;;;;27.83;33.30;99430.28;5103983;28;20055;-81
2021/06/14 10:40:20;;;;;;;4.25;1.92;;;;;;;27.88;33.91;99412.66;5097178;28;20051;-81
2021/06/14 10:42:48;;;;;;;3.90;1.95;;;;;;;27.62;30.19;99417.63;5093190;28;20048;-81
2021/06/14 10:45:18;;;;;;;5.20;2.03;;;;;;;27.65;32.34;99415.09;5100415;28;20128;-81
2021/06/14 10:47:47;;;;;;;6.03;2.08;;;;;;;27.59;31.83;99410.66;5113575;28;20487;-82
2021/06/14 10:50:15;;;;;;;4.23;1.60;;;;;;;27.76;30.67;99406.63;5111990;28;20040;-82
2021/06/14 10:52:44;;;;;;;3.25;1.42;;;;;;;27.97;30.38;99396.13;5113771;28;20052;-81
2021/06/14 10:55:13;;;;;;;3.55;1.83;;;;;;;28.14;30.69;99396.50;5107631;28;20110;-81
2021/06/14 10:57:44;;;;;;;4.05;2.08;;;;;;;28.14;30.07;99399.28;5110347;28;20135;-83
2021/06/14 11:00:27;;;;;;;4.72;1.92;;;;;;;28.30;29.32;99399.94;5108003;28;20048;-82
2021/06/14 11:02:56;;;;;;;2.25;1.60;;;;;;;28.46;29.87;99406.19;5108341;28;20146;-82
2021/06/14 11:05:31;;;;;;;4.13;1.87;;;;;;;28.43;27.66;99396.44;5106454;28;20085;-82
2021/06/14 11:07:58;;;;;;;4.43;1.90;;;;;;;28.30;32.58;99404.72;5100666;28;20343;-82
2021/06/14 11:10:28;;;;;;;6.38;1.70;;;;;;;28.01;28.05;99409.19;5098901;28;20039;-82
2021/06/14 11:13:08;;;;;;;2.75;1.60;;;;;;;28.00;30.15;99390.78;5106001;28;20093;-83
2021/06/14 11:15:36;;;;;;;4.47;1.98;;;;;;;27.90;27.46;99386.09;5099616;28;20123;-82
2021/06/14 11:18:06;;;;;;;3.08;1.60;;;;;;;27.62;27.42;99378.53;5115747;28;20047;-82
2021/06/14 11:20:45;;;;;;;4.60;1.52;;;;;;;27.67;28.22;99389.66;5102071;28;20054;-82
2021/06/14 11:23:19;;;;;;;5.43;1.70;;;;;;;27.67;28.07;99381.28;5097811;28;20559;-82
2021/06/14 11:25:50;;;;;;;5.18;1.80;;;;;;;27.32;29.44;99380.44;5086056;28;20048;-82
2021/06/14 11:28:33;;;;;;;7.82;1.40;;;;;;;27.39;27.70;99369.81;5078507;28;20053;-82
2021/06/14 11:31:02;;;;;;;5.20;1.63;;;;;;;27.44;29.22;99369.75;5096899;28;20052;-81
2021/06/14 11:33:32;;;;;;;11.87;1.83;;;;;;;27.92;30.00;99365.41;5098626;28;20058;-82
2021/06/14 11:35:59;;;;;;;4.40;1.60;;;;;;;28.14;27.90;99362.97;5100647;28;20052;-82
2021/06/14 11:38:27;;;;;;;6.30;1.70;;;;;;;28.25;27.79;99350.53;5097604;28;20052;-82
2021/06/14 11:41:03;;;;;;;2.88;1.60;;;;;;;28.73;26.21;99346.03;5107021;28;20093;-82
2021/06/14 11:43:31;;;;;;;3.47;1.33;;;;;;;28.22;26.97;99350.28;5097780;28;20044;-82
2021/06/14 11:45:59;;;;;;;3.72;1.70;;;;;;;28.51;27.35;99343.78;5107606;27;20051;-83
2021/06/14 11:48:27;;;;;;;4.93;1.50;;;;;;;28.73;28.31;99346.03;5096729;28;20054;-82
2021/06/14 11:53:56;;;;;;;5.57;2.00;;;;;;;28.84;27.38;99324.34;5115964;28;20050;-82
2021/06/14 11:56:25;;;;;;;2.85;1.27;;;;;;;29.03;26.41;99333.56;5116155;28;20047;-83
2021/06/14 11:58:54;;;;;;;5.37;1.80;;;;;;;29.28;26.93;99317.50;5116400;28;20457;-83
2021/06/14 12:01:27;;;;;;;4.35;1.50;;;;;;;29.52;26.23;99320.16;5102783;28;20248;-83
2021/06/14 12:03:55;;;;;;;14.55;1.83;;;;;;;29.50;25.33;99319.66;5115711;28;20066;-83
2021/06/14 12:06:25;;;;;;;2.60;1.27;;;;;;;29.35;25.39;99311.53;5116223;28;20046;-83
2021/06/14 12:08:51;;;;;;;;;;;;;;;28.84;25.10;99332.72;5105096;28;20051;-83
2021/06/14 12:11:24;;;;;;;4.75;1.50;;;;;;;29.27;26.27;99327.88;5101632;28;19935;-82
2021/06/14 12:13:51;;;;;;;5.07;1.65;;;;;;;29.64;25.89;99316.88;5096055;28;20052;-83
2021/06/14 12:16:24;;;;;;;7.15;1.73;;;;;;;29.42;25.72;99317.56;5110614;28;20055;-83
2021/06/14 12:18:59;;;;;;;4.47;1.55;;;;;;;29.06;25.79;99326.53;5115717;28;20112;-82
2021/06/14 12:21:26;;;;;;;4.93;1.40;;;;;;;29.16;26.27;99317.94;5109952;28;20043;-83
2021/06/14 12:23:53;;;;;;;2.67;1.40;;;;;;;28.82;24.65;99309.84;5115674;27;20044;-82
2021/06/14 12:26:20;;;;;;;2.30;1.27;;;;;;;28.73;25.17;99318.06;5087920;28;20093;-82
2021/06/14 12:28:47;;;;;;;7.13;1.80;;;;;;;29.43;24.36;99296.81;5115820;28;20070;-82
2021/06/14 12:31:15;;;;;;;5.00;1.77;;;;;;;29.49;26.54;99287.19;5096328;28;20452;-83
2021/06/14 12:33:45;;;;;;;3.70;1.70;;;;;;;29.79;26.52;99284.94;5080436;28;20110;-82
2021/06/14 12:36:14;;;;;;;3.58;1.38;;;;;;;29.70;25.35;99287.63;5108715;28;20055;-83
2021/06/14 12:38:51;;;;;;;5.80;1.97;;;;;;;29.87;24.70;99297.44;5095954;28;20052;-83
2021/06/14 12:41:18;;;;;;;10.15;1.83;;;;;;;29.88;26.61;99288.72;5095917;28;20055;-82
2021/06/14 12:43:46;;;;;;;5.55;1.50;;;;;;;29.82;24.49;99273.16;5112594;28;20084;-82
2021/06/14 12:46:14;;;;;;;4.57;1.70;;;;;;;29.89;24.24;99287.59;5115439;28;20051;-83
2021/06/14 12:48:45;;;;;;;4.68;1.17;;;;;;;29.53;24.01;99274.22;5113569;28;20053;-82
2021/06/14 12:51:11;;;;;;;5.13;1.45;;;;;;;29.98;23.80;99268.09;5095355;28;20055;-82
2021/06/14 12:53:38;;;;;;;3.03;1.50;;;;;;;29.94;24.22;99273.47;5096152;28;20048;-82
2021/06/14 12:56:05;;;;;;;5.20;1.73;;;;;;;29.79;25.03;99257.78;5094589;28;20050;-83
2021/06/14 12:58:39;;;;;;;2.72;1.42;;;;;;;30.06;26.52;99280.53;5103447;28;20055;-83
2021/06/14 13:01:09;;;;;;;11.35;1.60;;;;;;;29.97;24.95;99274.81;5094726;28;20048;-83
2021/06/14 13:03:38;;;;;;;5.78;1.52;;;;;;;29.91;24.36;99273.25;5107975;28;20075;-83
2021/06/14 13:06:07;;;;;;;3.10;1.30;;;;;;;29.90;24.52;99258.44;5115033;28;20055;-83
2021/06/14 13:08:36;;;;;;;2.92;1.30;;;;;;;29.87;23.85;99266.63;5108326;28;20294;-81
2021/06/14 13:11:04;;;;;;;3.15;1.40;;;;;;;29.83;25.13;99272.84;5109086;28;20044;-82
2021/06/14 13:13:35;;;;;;;3.80;1.25;;;;;;;30.24;24.96;99268.34;5098102;28;20066;-82
2021/06/14 13:16:06;;;;;;;1.92;1.25;;;;;;;30.14;23.95;99257.34;5104922;28;20051;-82
2021/06/14 13:18:34;;;;;;;2.40;1.23;;;;;;;30.13;24.40;99264.94;5115127;28;20039;-82
2021/06/14 13:21:08;;;;;;;3.35;1.20;;;;;;;30.31;23.06;99256.72;5104798;28;20056;-82
2021/06/14 13:23:46;;;;;;;0.80;0.80;;;;;;;30.76;24.15;99264.41;5093835;28;20070;-82
2021/06/14 13:26:12;;;;;;;2.28;1.15;;;;;;;30.45;24.14;99254.75;5095895;28;20040;-82
2021/06/14 13:28:43;;;;;;;3.03;1.35;;;;;;;29.75;23.68;99242.72;5085983;28;20048;-82
2021/06/14 13:31:11;;;;;;;3.45;1.58;;;;;;;29.81;24.11;99238.72;5112624;28;20060;-82
2021/06/14 13:33:44;;;;;;;3.03;1.45;;;;;;;30.28;24.43;99232.94;5074006;28;20056;-82
2021/06/14 13:36:14;;;;;;;2.42;1.45;;;;;;;30.59;24.08;99242.66;5073301;28;20105;-82
2021/06/14 13:38:42;;;;;;;2.00;1.00;;;;;;;30.51;24.55;99249.84;5103470;28;20046;-83
2021/06/14 13:41:17;;;;;;;2.80;1.45;;;;;;;30.98;23.79;99243.97;5083251;28;20048;-82
2021/06/14 13:43:44;;;;;;;3.30;1.20;;;;;;;30.67;24.18;99231.53;5093973;28;20055;-82
2021/06/14 13:46:11;;;;;;;2.75;1.50;;;;;;;31.01;25.01;99247.00;5113577;28;20514;-83
2021/06/14 13:48:42;;;;;;;3.53;1.38;;;;;;;30.80;23.38;99238.22;5095364;28;20044;-83
2021/06/14 13:51:14;;;;;;;3.97;1.70;;;;;;;30.69;23.77;99237.63;5101641;28;20101;-82
2021/06/14 13:53:51;;;;;;;2.67;1.17;;;;;;;30.72;24.54;99222.16;5114197;28;20051;-83
2021/06/14 13:56:18;;;;;;;3.17;1.50;;;;;;;30.66;22.93;99223.41;5104342;28;20155;-82
2021/06/14 13:58:45;;;;;;;3.55;1.35;;;;;;;30.06;24.02;99211.28;5093828;28;20040;-82
2021/06/14 14:01:14;;;;;;;5.78;1.60;;;;;;;30.35;22.28;99233.34;5106175;28;20632;-83
2021/06/14 14:03:43;;;;;;;4.57;1.33;;;;;;;30.08;24.13;99219.38;5093688;28;20055;-82
2021/06/14 14:06:10;;;;;;;3.93;1.60;;;;;;;30.04;23.69;99207.16;5109309;28;20051;-82
2021/06/14 14:08:38;;;;;;;2.45;1.33;;;;;;;30.00;22.76;99216.19;5093677;28;20070;-82
2021/06/14 14:11:05;;;;;;;3.13;1.40;;;;;;;30.11;23.20;99214.00;5094200;28;20116;-82
2021/06/14 14:13:32;;;;;;;5.07;1.65;;;;;;;30.25;23.03;99216.75;5109284;28;20043;-83
2021/06/14 14:15:59;;;;;;;3.25;1.38;;;;;;;30.61;22.69;99213.16;5113822;28;20505;-83
2021/06/14 14:18:26;;;;;;;2.38;1.20;;;;;;;30.79;22.79;99196.44;5096093;28;20052;-82
2021/06/14 14:20:53;;;;;;;2.55;1.40;;;;;;;30.51;23.62;99207.78;5093560;28;20047;-82
2021/06/14 14:23:20;;;;;;;3.90;1.27;;;;;;;30.19;22.96;99196.41;5097344;28;20044;-82
2021/06/14 14:25:48;;;;;;;1.90;1.23;;;;;;;30.48;23.46;99203.63;5093301;28;20051;-83
2021/06/14 14:28:15;;;;;;;7.68;1.50;;;;;;;30.88;23.29;99206.59;5098995;28;20052;-83
2021/06/14 14:30:46;;;;;;;5.20;1.75;;;;;;;30.35;23.39;99184.84;5093211;28;20051;-81
2021/06/14 14:33:16;;;;;;;5.10;1.73;;;;;;;30.49;24.51;99202.50;5099779;28;20040;-80
2021/06/14 14:36:06;;;;;;;5.38;1.50;;;;;;;30.75;23.49;99193.47;5092963;28;20483;-80
2021/06/14 14:38:34;;;;;;;7.18;1.60;;;;;;;31.01;24.79;99195.63;5090095;28;20052;-80
2021/06/14 14:41:09;;;;;;;2.10;1.20;;;;;;;30.76;25.00;99195.13;5092941;28;20062;-79
2021/06/14 14:43:37;;;;;;;2.47;1.70;;;;;;;30.68;24.43;99191.09;5092784;28;20052;-80
2021/06/14 14:46:05;;;;;;;2.58;1.48;;;;;;;30.65;24.86;99174.91;5073779;28;20077;-79
2021/06/14 14:48:32;;;;;;;1.65;1.10;;;;;;;30.53;24.37;99197.91;5102759;28;20054;-80
2021/06/14 14:50:59;;;;;;;3.40;1.40;;;;;;;30.34;25.31;99192.44;5090282;28;20047;-78
2021/06/14 14:53:27;;;;;;;2.50;1.60;;;;;;;30.57;24.70;99177.66;5095849;28;20044;-80
2021/06/14 14:55:56;;;;;;;1.98;1.50;;;;;;;30.55;24.50;99163.94;5102998;28;20449;-80
2021/06/14 14:58:25;;;;;;;3.22;1.67;;;;;;;30.58;24.40;99170.88;5116931;28;20078;-80
2021/06/14 15:00:52;;;;;;;1.90;1.33;;;;;;;30.59;24.99;99178.97;5104132;28;20077;-80
2021/06/14 15:03:19;;;;;;;4.60;1.65;;;;;;;30.69;23.91;99172.28;5096409;28;20044;-80
2021/06/14 15:05:46;;;;;;;3.72;1.58;;;;;;;30.48;25.82;99171.97;5091695;28;20056;-79
2021/06/14 15:08:13;;;;;;;3.20;1.42;;;;;;;30.44;24.94;99162.50;5103828;28;20051;-80
2021/06/14 15:10:40;;;;;;;4.55;1.52;;;;;;;30.56;25.49;99167.56;5113394;28;20052;-80
2021/06/14 15:13:07;;;;;;;3.60;1.50;;;;;;;30.61;24.46;99167.47;5104241;28;20421;-80
2021/06/14 15:15:35;;;;;;;6.22;1.83;;;;;;;30.83;24.83;99167.44;5086270;28;20052;-80
2021/06/14 15:18:03;;;;;;;3.42;1.55;;;;;;;30.38;25.03;99147.75;5083813;28;20048;-80
2021/06/14 15:20:31;;;;;;;3.20;1.83;;;;;;;30.36;25.88;99141.63;5096421;28;20044;-79
2021/06/14 15:23:00;;;;;;;5.05;1.90;;;;;;;30.39;25.79;99145.78;5099094;28;20044;-80
2021/06/14 15:25:28;;;;;;;2.05;1.50;;;;;;;30.37;25.60;99154.53;5096054;28;20147;-80
2021/06/14 15:27:55;;;;;;;2.67;1.20;;;;;;;30.46;26.08;99155.44;5095809;28;20392;-80
2021/06/14 15:30:25;;;;;;;3.83;1.60;;;;;;;30.09;27.23;99146.19;5096100;28;20048;-80
2021/06/14 15:32:56;;;;;;;3.63;1.65;;;;;;;30.15;26.23;99136.50;5104621;28;20056;-80
2021/06/14 15:35:25;;;;;;;4.80;1.80;;;;;;;30.12;26.29;99142.75;5095460;28;20048;-80
2021/06/14 15:37:53;;;;;;;2.92;1.40;;;;;;;30.25;26.09;99149.47;5103358;28;20367;-80
2021/06/14 15:40:20;;;;;;;4.53;1.63;;;;;;;30.23;26.54;99137.75;5114818;28;20116;-81
2021/06/14 15:42:50;;;;;;;3.63;1.65;;;;;;;30.48;26.40;99149.53;5103905;28;20043;-81
2021/06/14 15:45:17;;;;;;;;;;;;;;;30.43;27.19;99141.25;5115103;28;20079;-81
2021/06/14 15:47:44;;;;;;;3.70;1.70;;;;;;;30.26;26.39;99136.28;5101779;28;19919;-80
2021/06/14 15:50:17;;;;;;;7.82;1.98;;;;;;;29.96;26.70;99119.00;5109340;28;20052;-80
2021/06/14 15:52:44;;;;;;;2.95;2.03;;;;;;;30.31;25.42;99128.56;5102134;28;20080;-81
2021/06/14 15:55:13;;;;;;;5.22;1.52;;;;;;;29.76;27.28;99107.09;5102751;28;20051;-80
2021/06/14 15:57:40;;;;;;;4.72;1.70;;;;;;;29.58;27.51;99110.88;5114615;27;20476;-80
2021/06/14 16:00:09;;;;;;;5.88;1.35;;;;;;;29.55;27.74;99108.69;5101366;28;20113;-81
2021/06/14 16:02:36;;;;;;;2.38;1.65;;;;;;;29.88;28.28;99098.19;5094800;28;20055;-81
2021/06/14 16:05:04;;;;;;;3.28;1.73;;;;;;;29.71;27.54;99089.59;5096536;28;20040;-80
2021/06/14 16:07:32;;;;;;;4.70;1.60;;;;;;;30.07;26.79;99098.03;5116166;28;20112;-81
2021/06/14 16:09:58;;;;;;;5.28;1.60;;;;;;;29.82;26.91;99094.69;5108409;28;20051;-81
2021/06/14 16:12:25;;;;;;;10.00;2.28;;;;;;;29.81;26.45;99087.41;5096630;28;20048;-80
2021/06/14 16:14:52;;;;;;;2.92;1.27;;;;;;;29.80;27.12;99090.50;5115019;28;20055;-80
2021/06/14 16:17:19;;;;;;;2.58;1.40;;;;;;;29.75;26.34;99087.78;5105701;28;20400;-81
2021/06/14 16:19:46;;;;;;;4.38;1.52;;;;;;;29.70;26.89;99099.13;5094791;28;20053;-80
2021/06/14 16:22:13;;;;;;;3.35;1.75;;;;;;;29.91;27.50;99097.53;5098607;28;20052;-80
2021/06/14 16:24:41;;;;;;;3.70;1.95;;;;;;;29.86;27.13;99100.47;5115050;28;20134;-80
2021/06/14 16:27:08;;;;;;;6.55;2.17;;;;;;;29.78;27.10;99110.44;5108166;28;20094;-80
2021/06/14 16:29:35;;;;;;;3.67;1.63;;;;;;;29.81;27.22;99115.44;5114927;28;20046;-81
2021/06/14 16:32:03;;;;;;;3.05;1.42;;;;;;;29.32;28.21;99104.97;5108692;28;20055;-80
2021/06/14 16:34:29;;;;;;;2.08;1.40;;;;;;;29.60;29.07;99114.19;5098716;28;20639;-80
2021/06/14 16:36:56;;;;;;;4.43;1.60;;;;;;;29.73;28.57;99112.50;5111045;28;20048;-80
2021/06/14 16:39:23;;;;;;;6.18;2.10;;;;;;;29.40;28.08;99113.47;5097164;28;20101;-80
2021/06/14 16:41:51;;;;;;;6.55;2.60;;;;;;;29.35;27.93;99098.75;5113513;28;20051;-80
2021/06/14 16:44:19;;;;;;;2.45;1.75;;;;;;;29.24;27.96;99110.16;5109175;28;20051;-80
2021/06/14 16:46:46;;;;;;;6.25;1.45;;;;;;;29.18;28.71;99111.38;5094593;28;20079;-80
2021/06/14 16:49:13;;;;;;;5.65;1.80;;;;;;;29.20;28.55;99097.88;5092798;28;20055;-80
2021/06/14 16:51:42;;;;;;;4.45;1.65;;;;;;;29.09;28.64;99096.44;5101091;28;20048;-80
2021/06/14 16:54:14;;;;;;;4.20;1.73;;;;;;;28.99;29.35;99091.84;5112889;28;20047;-80
2021/06/14 16:56:41;;;;;;;3.72;1.70;;;;;;;29.38;28.44;99093.34;5090256;28;20105;-80
2021/06/14 16:59:09;;;;;;;7.18;1.38;;;;;;;29.43;28.71;99109.22;5094685;28;20052;-79
2021/06/14 17:01:36;;;;;;;3.75;1.80;;;;;;;29.47;28.43;99101.84;5103727;28;20090;-80
2021/06/14 17:04:02;;;;;;;4.85;1.60;;;;;;;29.27;28.56;99108.72;5114403;28;20047;-81
2021/06/14 17:06:29;;;;;;;7.35;1.73;;;;;;;28.97;30.10;99102.53;5090634;28;20055;-81
2021/06/14 17:08:56;;;;;;;4.15;1.50;;;;;;;28.84;30.58;99103.34;5102385;28;20051;-80
2021/06/14 17:11:23;;;;;;;2.38;1.65;;;;;;;28.89;29.47;99098.47;5103218;28;20557;-80
2021/06/14 17:13:50;;;;;;;6.68;1.60;;;;;;;28.66;29.57;99105.06;5094875;28;20051;-79
2021/06/14 17:16:18;;;;;;;4.47;1.77;;;;;;;28.66;30.58;99088.28;5098669;28;20046;-80
2021/06/14 17:18:45;;;;;;;5.55;1.40;;;;;;;28.52;30.87;99088.22;5077074;28;20408;-81
2021/06/14 17:21:15;;;;;;;2.17;1.63;;;;;;;28.42;29.69;99092.84;5071234;28;20404;-81
2021/06/14 17:24:07;;;;;;;3.45;1.70;;;;;;;28.43;29.82;99104.84;5073895;28;20665;-80
2021/06/14 17:27:04;;;;;;;3.47;1.30;;;;;;;28.30;30.30;99102.81;5112234;28;20058;-81
2021/06/14 17:30:14;;;;;;;3.25;1.48;;;;;;;27.95;30.71;99107.81;5102285;22;20037;-80
2021/06/14 17:32:53;;;;;;;2.42;1.45;;;;;;;27.95;30.54;99102.22;5049613;28;20052;-80
2021/06/14 17:35:23;;;;;;;3.13;1.90;;;;;;;27.59;31.35;99094.34;5034665;28;20053;-80
2021/06/14 17:38:04;;;;;;;8.38;1.85;;;;;;;27.76;31.21;99103.00;5033388;28;20088;-80
2021/06/14 17:40:37;;;;;;;3.53;1.10;;;;;;;27.39;32.21;99106.59;5045666;28;20076;-80
2021/06/14 17:43:07;;;;;;;4.53;1.60;;;;;;;27.22;32.85;99099.50;5017719;28;20096;-81
2021/06/14 17:45:36;;;;;;;5.85;1.60;;;;;;;27.31;31.75;99103.31;5048415;28;20049;-80
2021/06/14 17:48:06;;;;;;;9.07;1.70;;;;;;;27.38;31.82;99108.53;5033239;28;20049;-81
2021/06/14 17:50:36;;;;;;;6.25;1.70;;;;;;;27.33;32.09;99109.44;5042501;28;20091;-80
2021/06/14 17:53:03;;;;;;;;;;;;;;;27.19;32.52;99109.28;5033096;28;20057;-79
2021/06/14 17:55:34;;;;;;;3.28;1.92;;;;;;;27.00;31.95;99095.25;5037469;28;19927;-80
2021/06/14 17:58:04;;;;;;;2.65;1.38;;;;;;;26.84;32.53;99113.28;5051536;28;20140;-80
2021/06/14 18:00:31;;;;;;;5.82;1.52;;;;;;;26.55;33.15;99090.97;5043151;28;20049;-81
2021/06/14 18:02:59;;;;;;;2.72;1.50;;;;;;;26.46;33.93;99096.31;5044343;28;20064;-81
2021/06/14 18:05:28;;;;;;;4.80;1.50;;;;;;;26.55;33.57;99097.34;5052783;28;20049;-80
2021/06/14 18:07:55;;;;;;;5.97;1.75;;;;;;;26.43;33.92;99092.16;5040835;28;20505;-80
2021/06/14 18:10:22;;;;;;;3.33;1.55;;;;;;;26.24;34.19;99099.56;5047204;28;20057;-80
2021/06/14 18:12:49;;;;;;;3.33;1.60;;;;;;;26.18;33.80;99096.00;5033418;28;20049;-80
2021/06/14 18:15:19;;;;;;;4.82;1.63;;;;;;;26.11;34.44;99093.53;5050214;28;20040;-80
2021/06/14 18:17:46;;;;;;;;;;;;;;;26.02;34.83;99088.88;5045497;28;20051;-80
2021/06/14 18:20:16;;;;;;;6.00;1.80;;;;;;;25.81;34.68;99088.13;5046714;28;19920;-80
2021/06/14 18:22:45;;;;;;;6.35;2.42;;;;;;;25.64;35.34;99075.44;5050534;28;20135;-80
2021/06/14 18:25:14;;;;;;;14.50;1.63;;;;;;;25.68;35.41;99079.28;5041785;28;20404;-80